Latest Weather Observations for Moree

IDN60801

Issued at 10:33 pm EST Sunday 24 July 2016 (issued every 30 minutes, with the page automatically refreshed every 10 minutes)

About weather observations | Map of weather stations | Latest weather observations for NSW | Other Formats
Station Details ID: 053115 Name: MOREE AERO Lat: -29.49 Lon: 149.85 Height: 213.0 m
Data from the previous 72 hours. | See also: Recent months at Moree
Date/Time
EST
Temp
°C
App
Temp
°C
Dew
Point
°C
Rel
Hum
%
Delta-T
°C
Wind Press
QNH
hPa
Press
MSL
hPa
Rain since
9am
mm
Dir  Spd
km/h
Gust
km/h
Spd
kts
Gust
kts
24/10:30pm 6.8 4.6 5.3 90 0.7 ENE 6 9 3 5 1018.3 1018.4 0.0
24/10:00pm 6.4 3.9 4.6 88 0.8 E 7 7 4 4 1018.0 1018.1 0.0
24/09:30pm 7.0 4.5 5.0 87 0.9 ENE 7 7 4 4 1017.9 1018.0 0.0
24/09:00pm 7.2 5.7 5.0 86 1.0 E 2 6 1 3 1017.7 1017.8 0.0
24/08:30pm 7.8 5.0 5.3 84 1.1 ESE 9 9 5 5 1017.6 1017.7 0.0
24/08:00pm 8.2 5.5 5.7 84 1.1 E 9 9 5 5 1017.4 1017.5 0.0
24/07:30pm 8.4 6.1 5.5 82 1.3 E 7 9 4 5 1017.1 1017.2 0.0
24/07:00pm 9.0 6.6 5.4 78 1.6 ENE 7 7 4 4 1016.9 1017.0 0.0
24/06:30pm 9.9 7.2 5.5 74 2.0 ENE 9 9 5 5 1016.4 1016.6 0.0
24/06:00pm 10.8 7.8 5.8 71 2.3 NE 11 13 6 7 1016.0 1016.2 0.0
24/05:30pm 11.2 8.1 5.7 69 2.6 NE 11 15 6 8 1015.8 1016.0 0.0
24/05:00pm 11.8 9.3 5.0 63 3.1 NE 7 9 4 5 1015.9 1016.1 0.0
24/04:30pm 12.2 9.6 4.2 58 3.7 NNE 7 9 4 5 1015.6 1015.7 0.0
24/04:00pm 12.3 9.1 3.0 53 4.1 NNW 9 11 5 6 1015.6 1015.7 0.0
24/03:30pm 12.4 9.7 3.9 56 3.9 NNW 7 13 4 7 1015.7 1015.8 0.0
24/03:00pm 12.4 9.5 4.4 58 3.7 NW 9 11 5 6 1015.9 1016.1 0.0
24/02:30pm 12.3 10.0 4.8 60 3.5 NW 6 11 3 6 1016.2 1016.4 0.0
24/02:00pm 12.2 9.2 4.2 58 3.7 N 9 11 5 6 1016.2 1016.4 0.0
24/01:30pm 12.2 9.5 3.7 56 3.8 NNE 7 11 4 6 1016.3 1016.5 0.0
24/01:00pm 11.8 9.3 4.8 62 3.2 NNE 7 11 4 6 1016.9 1017.0 0.0
24/12:30pm 11.6 9.6 4.6 62 3.2 N 4 11 2 6 1017.5 1017.6 0.0
24/12:00pm 11.3 8.0 4.7 64 3.0 NE 11 13 6 7 1017.4 1017.5 0.0
24/11:30am 11.2 8.1 5.5 68 2.7 ENE 11 15 6 8 1017.5 1017.6 0.0
24/11:00am 11.1 8.0 5.6 69 2.6 E 11 13 6 7 1018.3 1018.4 0.0
24/10:30am 10.4 7.7 5.6 72 2.2 ESE 9 11 5 6 1018.8 1018.9 0.0
24/10:00am 10.2 7.4 5.2 71 2.3 E 9 13 5 7 1018.5 1018.6 0.0
24/09:30am 9.9 7.3 5.9 76 1.9 NE 9 11 5 6 1018.5 1018.6 0.0
24/09:00am 9.0 7.0 6.1 82 1.3 NE 6 7 3 4 1018.5 1018.6 0.0
24/08:30am 8.1 5.4 5.6 84 1.1 ENE 9 11 5 6 1018.0 1018.1 0.0
24/08:00am 7.5 4.7 5.1 85 1.1 NE 9 11 5 6 1018.1 1018.2 0.0
24/07:30am 7.2 5.0 5.2 87 0.9 SE 6 7 3 4 1017.9 1018.0 0.0
24/07:00am 6.5 5.3 4.7 88 0.8 CALM 0 0 0 0 1017.7 1017.8 0.0
24/06:30am 6.4 4.1 4.6 88 0.8 SE 6 7 3 4 1017.0 1017.1 0.0
24/06:00am 6.2 5.0 4.5 89 0.7 CALM 0 0 0 0 1017.0 1017.1 0.0
24/05:30am 6.2 3.8 4.2 87 0.9 E 6 7 3 4 1016.5 1016.7 0.0
24/05:00am 6.3 3.6 3.8 84 1.1 NNW 7 9 4 5 1016.3 1016.5 0.0
24/04:30am 6.6 4.0 4.1 84 1.1 NNW 7 9 4 5 1016.2 1016.4 0.0
24/04:00am 6.6 5.2 3.8 82 1.2 CALM 0 0 0 0 1015.6 1015.7 0.0
24/03:30am 6.4 4.9 3.2 80 1.4 CALM 0 0 0 0 1015.7 1015.8 0.0
24/03:00am 6.3 3.2 3.5 82 1.2 SSE 9 9 5 5 1015.5 1015.6 0.0
24/02:30am 6.1 3.3 3.4 83 1.1 SE 7 9 4 5 1015.8 1016.0 0.0
24/02:00am 5.8 3.1 3.5 85 1.0 SSE 7 9 4 5 1016.1 1016.3 0.0
24/01:30am 5.8 2.7 3.8 87 0.9 S 9 9 5 5 1016.5 1016.7 0.0
24/01:00am 5.5 2.0 3.3 86 0.9 S 11 13 6 7 1017.1 1017.2 0.0
24/12:30am 6.3 3.3 4.1 86 1.0 S 9 11 5 6 1017.3 1017.4 0.0
24/12:00am 6.3 2.5 4.0 85 1.0 S 13 13 7 7 1017.0 1017.1 0.0
 
Date/Time
EST
Temp
°C
App
Temp
°C
Dew
Point
°C
Rel
Hum
%
Delta-T
°C
Wind Press
QNH
hPa
Press
MSL
hPa
Rain since
9am
mm
Dir  Spd
km/h
Gust
km/h
Spd
kts
Gust
kts
23/11:30pm 7.1 3.4 4.4 83 1.2 S 13 17 7 9 1017.2 1017.3 0.0
23/11:00pm 7.5 3.1 4.5 81 1.3 S 17 20 9 11 1017.1 1017.2 0.0
23/10:30pm 7.3 3.2 4.3 81 1.3 S 15 17 8 9 1016.7 1016.8 0.0
23/10:00pm 7.5 3.7 3.7 77 1.6 S 13 13 7 7 1016.5 1016.7 0.0
23/09:30pm 7.7 3.9 3.7 76 1.7 S 13 13 7 7 1016.4 1016.6 0.0
23/09:00pm 8.3 4.5 4.1 75 1.8 SSW 13 15 7 8 1016.2 1016.4 0.0
23/08:30pm 9.3 5.2 4.3 71 2.2 SSW 15 17 8 9 1016.1 1016.3 0.0
23/08:00pm 9.1 4.5 3.9 70 2.3 SW 17 20 9 11 1016.2 1016.4 0.0
23/07:30pm 9.8 5.9 3.5 65 2.8 SSW 13 15 7 8 1015.9 1016.1 0.0
23/07:00pm 10.5 6.2 3.1 60 3.2 SW 15 17 8 9 1015.6 1015.7 0.0
23/06:30pm 11.8 7.4 2.8 54 4.0 WSW 15 17 8 9 1015.2 1015.3 0.0
23/06:00pm 12.3 8.4 3.3 54 4.0 W 13 15 7 8 1014.7 1014.8 0.0
23/05:30pm 13.6 8.5 2.8 48 4.8 W 19 24 10 13 1014.4 1014.5 0.0
23/05:00pm 15.4 9.9 1.9 40 6.0 WSW 20 26 11 14 1013.8 1013.9 0.0
23/04:30pm 16.3 9.9 0.8 35 6.8 WSW 24 33 13 18 1013.5 1013.6 0.0
23/04:00pm 16.9 10.3 1.8 36 6.8 WSW 26 35 14 19 1013.5 1013.6 0.0
23/03:30pm 16.9 10.3 -0.3 31 7.4 WSW 24 30 13 16 1012.9 1013.0 0.0
23/03:00pm 17.2 9.8 -0.5 30 7.6 WSW 28 37 15 20 1012.7 1012.8 0.0
23/02:30pm 17.3 10.0 2.5 37 6.8 WSW 30 37 16 20 1012.5 1012.6 0.0
23/02:00pm 17.2 10.0 2.8 38 6.7 WSW 30 39 16 21 1012.4 1012.5 0.0
23/01:30pm 17.5 9.7 2.7 37 6.8 WSW 33 43 18 23 1012.5 1012.6 0.0
23/01:00pm 17.5 9.2 2.3 36 7.0 WSW 35 48 19 26 1012.9 1013.0 0.0
23/12:30pm 17.6 9.4 2.8 37 6.9 W 35 43 19 23 1013.2 1013.3 0.0
23/12:00pm 17.7 9.7 3.6 39 6.7 WSW 35 44 19 24 1013.3 1013.4 0.0
23/11:30am 17.2 9.8 3.8 41 6.3 WSW 32 39 17 21 1013.4 1013.5 0.0
23/11:00am 17.3 9.4 4.6 43 6.1 WSW 35 44 19 24 1013.6 1013.7 0.0
23/10:30am 17.1 8.8 4.4 43 6.1 SW 37 50 20 27 1013.5 1013.6 0.0
23/10:00am 16.8 9.2 5.7 48 5.4 WSW 35 44 19 24 1013.5 1013.6 0.0
23/09:30am 16.3 9.5 7.0 54 4.7 SW 32 43 17 23 1013.3 1013.4 0.0
23/09:00am 15.5 9.3 7.8 60 3.9 SW 30 35 16 19 1013.1 1013.2 0.0
23/08:30am 15.5 9.9 8.7 64 3.5 SW 28 37 15 20 1012.7 1012.8 0.0
23/08:00am 15.7 9.3 8.4 62 3.7 SW 32 43 17 23 1012.5 1012.6 0.0
23/07:30am 16.2 10.2 10.1 67 3.2 SW 32 39 17 21 1011.7 1011.8 0.0
23/07:00am 17.6 12.3 12.5 72 2.9 WSW 32 39 17 21 1010.8 1010.9 0.0
23/06:30am 18.1 15.5 15.0 82 1.8 W 22 30 12 16 1010.0 1010.1 0.0
23/06:00am 18.6 16.5 15.3 81 2.0 WNW 20 24 11 13 1009.2 1009.3 0.0
23/05:30am 19.1 16.8 15.6 80 2.1 WNW 22 30 12 16 1008.8 1008.9 0.0
23/05:00am 19.4 16.7 15.7 79 2.2 WNW 24 30 13 16 1008.6 1008.7 0.0
23/04:30am 19.5 16.5 15.8 79 2.2 NW 26 37 14 20 1008.2 1008.3 0.0
23/04:00am 19.0 16.8 15.9 82 1.9 NNW 22 32 12 17 1007.7 1007.7 0.0
23/03:30am 19.0 16.8 15.9 82 1.9 NNW 22 30 12 16 1007.9 1007.9 0.0
23/03:00am 19.6 17.2 16.3 81 2.0 NNW 24 28 13 15 1008.1 1008.2 0.0
23/02:30am 19.9 17.5 16.3 80 2.2 NNW 24 30 13 16 1008.3 1008.4 0.0
23/02:00am 19.5 17.8 16.2 81 2.0 NNW 20 28 11 15 1008.6 1008.7 0.0
23/01:30am 19.8 18.3 16.4 81 2.1 NNW 19 26 10 14 1008.9 1009.0 0.0
23/01:00am 19.6 18.5 16.3 81 2.0 NNW 17 22 9 12 1009.4 1009.5 0.0
23/12:30am 20.4 19.4 16.6 79 2.3 NNW 17 24 9 13 1009.7 1009.8 0.0
23/12:00am 20.0 19.0 16.6 81 2.1 NNW 17 20 9 11 1009.7 1009.8 0.0
 
Date/Time
EST
Temp
°C
App
Temp
°C
Dew
Point
°C
Rel
Hum
%
Delta-T
°C
Wind Press
QNH
hPa
Press
MSL
hPa
Rain since
9am
mm
Dir  Spd
km/h
Gust
km/h
Spd
kts
Gust
kts
22/11:30pm 19.8 19.2 16.6 82 1.9 N 15 19 8 10 1009.9 1010.0 0.0
22/11:00pm 19.7 19.5 16.7 83 1.8 N 13 17 7 9 1010.2 1010.3 0.0
22/10:30pm 20.0 19.5 16.8 82 2.0 N 15 19 8 10 1010.3 1010.4 0.0
22/10:00pm 20.3 19.9 17.1 82 2.0 N 15 20 8 11 1010.3 1010.4 0.0
22/09:30pm 19.9 19.9 17.1 84 1.7 N 13 17 7 9 1010.4 1010.5 0.0
22/09:00pm 20.5 19.8 17.3 82 2.0 N 17 22 9 12 1010.4 1010.5 0.0
22/08:30pm 21.0 20.7 17.4 80 2.2 N 15 20 8 11 1010.4 1010.5 0.0
22/08:00pm 21.0 20.8 17.6 81 2.1 N 15 19 8 10 1010.5 1010.6 0.0
22/07:30pm 20.8 20.7 17.8 83 1.9 N 15 19 8 10 1010.4 1010.5 0.0
22/07:00pm 20.9 21.6 17.9 83 1.9 N 11 13 6 7 1010.6 1010.7 0.0
22/06:30pm 20.9 21.9 17.7 82 2.0 N 9 11 5 6 1010.6 1010.7 0.0
22/06:00pm 21.6 22.2 17.8 79 2.4 N 11 11 6 6 1010.3 1010.4 0.0
22/05:30pm 21.8 22.3 17.4 76 2.7 N 11 13 6 7 1010.3 1010.4 0.0
22/05:00pm 23.3 23.4 17.5 70 3.6 N 13 15 7 8 1010.2 1010.3 0.0
22/04:30pm 23.7 22.6 17.4 68 3.9 NNW 19 24 10 13 1010.3 1010.4 0.0
22/04:00pm 24.8 24.3 17.8 65 4.4 NNW 17 20 9 11 1010.4 1010.5 0.0
22/03:30pm 23.9 23.1 17.9 69 3.8 NW 19 28 10 15 1010.6 1010.7 0.0
22/03:00pm 24.3 22.9 17.1 64 4.5 NW 20 28 11 15 1010.8 1010.9 0.0
22/02:30pm 24.2 24.0 18.6 71 3.6 NNW 17 26 9 14 1011.1 1011.2 0.0
22/02:00pm 23.9 23.7 18.5 72 3.4 NNW 17 24 9 13 1011.5 1011.6 0.0
22/01:30pm 23.8 23.8 18.9 74 3.1 NNW 17 28 9 15 1012.2 1012.3 0.0
22/01:00pm 23.2 23.6 18.9 77 2.7 NNW 15 22 8 12 1012.7 1012.8 0.0
22/12:30pm 22.2 21.6 18.4 79 2.4 NNW 19 26 10 14 1013.3 1013.4 0.0
22/12:23pm 22.2 21.0 18.4 79 2.4 NNW 22 32 12 17 1013.5 1013.6 0.0
22/12:00pm 21.7 20.8 18.1 80 2.3 NNW 20 24 11 13 1013.9 1014.0 0.0
22/11:52am 21.9 21.0 18.1 79 2.4 N 20 28 11 15 1014.0 1014.1 0.0
22/11:30am 21.5 21.1 18.1 81 2.1 N 17 22 9 12 1014.5 1014.6 0.0
22/11:00am 20.4 19.8 17.6 84 1.7 N 17 22 9 12 1015.2 1015.3 0.0
22/10:30am 20.1 19.5 17.5 85 1.6 N 17 20 9 11 1015.5 1015.6 0.0
22/10:26am 20.0 19.5 17.8 87 1.4 N 17 20 9 11 1015.5 1015.6 0.0
22/10:00am 19.1 18.7 17.2 89 1.2 NNE 15 19 8 10 1015.6 1015.7 0.0
22/09:49am 18.9 18.5 17.2 90 1.0 NNE 15 19 8 10 1015.8 1016.0 0.0
22/09:30am 18.6 17.7 16.8 89 1.1 NNE 17 22 9 12 1015.9 1016.1 0.0
22/09:18am 18.0 17.0 16.5 91 0.9 NNE 17 20 9 11 1016.0 1016.2 0.0
22/09:00am 17.3 15.6 15.8 91 0.9 NNE 19 24 10 13 1015.9 1016.1 0.2
22/08:30am 17.0 16.1 15.9 93 0.7 NE 15 19 8 10 1016.1 1016.3 0.2
22/08:00am 16.2 14.6 15.1 93 0.6 NNE 17 20 9 11 1015.9 1016.1 0.2
22/07:30am 15.8 14.1 14.7 93 0.6 NNE 17 22 9 12 1015.8 1016.0 0.2
22/07:00am 15.8 14.9 14.8 94 0.6 NNE 13 17 7 9 1015.9 1016.1 0.2
22/06:30am 15.7 14.4 14.9 95 0.5 NE 15 15 8 8 1015.8 1016.0 0.2
22/06:06am 15.5 14.5 14.7 95 0.5 NE 13 13 7 7 1015.8 1016.0 0.2
22/06:00am 15.5 14.5 14.7 95 0.5 NE 13 13 7 7 1015.8 1016.0 0.2
22/05:30am 15.5 14.5 14.7 95 0.5 NE 13 15 7 8 1015.5 1015.6 0.0
22/05:00am 15.8 15.0 15.0 95 0.5 NE 13 13 7 7 1015.5 1015.6 0.0
22/04:30am 16.2 15.5 15.4 95 0.5 NE 13 13 7 7 1015.5 1015.6 0.0
22/04:09am 16.2 15.9 15.4 95 0.5 NE 11 13 6 7 1015.6 1015.7 0.0
22/04:00am 16.1 15.7 15.3 95 0.5 NE 11 13 6 7 1015.7 1015.8 0.0
22/03:49am 16.0 15.6 15.2 95 0.5 NE 11 13 6 7 1015.8 1016.0 0.0
22/03:30am 16.0 15.6 15.2 95 0.5 NE 11 11 6 6 1015.9 1016.1 0.0
22/03:00am 15.8 15.3 15.0 95 0.5 NE 11 11 6 6 1016.1 1016.3 0.0
22/02:30am 16.2 15.9 15.4 95 0.5 NE 11 11 6 6 1016.3 1016.5 0.0
22/02:00am 16.5 16.3 15.7 95 0.5 NNE 11 13 6 7 1016.5 1016.7 0.0
22/01:56am 16.3 16.0 15.5 95 0.5 NNE 11 13 6 7 1016.5 1016.7 0.0
22/01:55am 16.4 16.2 15.6 95 0.5 NNE 11 13 6 7 1016.5 1016.7 0.0
22/01:30am 16.5 15.9 15.7 95 0.5 NNE 13 15 7 8 1016.5 1016.7 0.0
22/01:00am 16.8 16.6 15.8 94 0.6 NNE 11 13 6 7 1017.1 1017.2 0.0
22/12:30am 17.1 16.7 16.1 94 0.6 N 13 15 7 8 1017.2 1017.3 0.0
22/12:00am 17.1 16.7 16.1 94 0.6 NNE 13 13 7 7 1017.4 1017.5 0.0
 
Date/Time
EST
Temp
°C
App
Temp
°C
Dew
Point
°C
Rel
Hum
%
Delta-T
°C
Wind Press
QNH
hPa
Press
MSL
hPa
Rain since
9am
mm
Dir  Spd
km/h
Gust
km/h
Spd
kts
Gust
kts
21/11:30pm 17.2 17.2 16.2 94 0.6 NNE 11 13 6 7 1017.6 1017.7 0.0
21/11:00pm 17.1 17.8 16.1 94 0.6 ENE 7 9 4 5 1017.9 1018.0 0.0

Other Formats:

Comma delimited format used in spreadsheet applications
http://www.bom.gov.au/fwo/IDN60801/IDN60801.95527.axf

JavaScript Object Notation format (JSON) in row-major order
http://www.bom.gov.au/fwo/IDN60801/IDN60801.95527.json